METAR Data
IDs: Format: Raw Decoded Include TAF

Data at: 2002 UTC 26 Sep 2021

LKLN 261900Z AUTO VRB01KT 9999 FEW091 BKN160 17/14 Q1018